Terminal Aerodrome Forecast
Issued by NWS

Home | Current Version | Previous Version | Text Only | Print | Product List | Glossary On
Versions: 1 2 3 4 5 6 7 8 9 10 11 12 13 14 15 16 17 18 19
000
FTUS43 KDLH 240500
TAFBRD
TAF
KBRD 240523Z 2406/2506 VRB04KT P6SM BKN080
     FM241200 12009KT P6SM -RA OVC050
     FM241800 12012KT P6SM -RA OVC035
     FM250400 11010KT P6SM -RA OVC030=

USA.gov is the U.S. government's official web portal to all federal, state and local government web resources and services.